createdAt,value
2018-05-31T00:00:22.946Z,62.80
2018-05-31T00:02:51.025Z,62.60
2018-05-31T00:05:19.134Z,62.50
2018-05-31T00:07:47.268Z,62.60
2018-05-31T00:10:15.396Z,62.50
2018-05-31T00:12:43.550Z,62.30
2018-05-31T00:15:11.750Z,62.30
2018-05-31T00:17:39.976Z,62.30
2018-05-31T00:20:08.222Z,62.20
2018-05-31T00:22:36.483Z,62.20
2018-05-31T00:25:04.724Z,62.10
2018-05-31T00:27:33.584Z,62.10
2018-05-31T00:30:03.075Z,62.00
2018-05-31T00:32:31.197Z,61.90
2018-05-31T00:34:59.334Z,61.90
2018-05-31T00:37:27.464Z,61.80
2018-05-31T00:39:55.594Z,61.80
2018-05-31T00:42:24.512Z,61.60
2018-05-31T00:44:52.607Z,61.50
2018-05-31T00:47:20.722Z,61.50
2018-05-31T00:49:48.833Z,61.50
2018-05-31T00:52:16.974Z,61.40
2018-05-31T00:54:45.865Z,61.50
2018-05-31T00:57:14.861Z,61.50
2018-05-31T00:59:43.038Z,61.50
2018-05-31T01:02:11.911Z,61.60
2018-05-31T01:04:40.040Z,61.60
2018-05-31T01:07:08.147Z,62.60
2018-05-31T01:09:36.256Z,61.80
2018-05-31T01:12:04.363Z,61.90
2018-05-31T01:14:32.589Z,62.00
2018-05-31T01:17:00.739Z,62.10
2018-05-31T01:19:28.977Z,62.10
2018-05-31T01:21:57.117Z,62.10
2018-05-31T01:24:26.006Z,62.30
2018-05-31T01:26:54.882Z,62.40
2018-05-31T01:29:23.000Z,62.40
2018-05-31T01:31:51.178Z,62.40
2018-05-31T01:34:19.282Z,62.60
2018-05-31T01:36:47.442Z,62.80
2018-05-31T01:39:18.271Z,62.80
2018-05-31T01:41:46.394Z,62.90
2018-05-31T01:44:15.268Z,63.10
2018-05-31T01:46:43.389Z,63.00
2018-05-31T01:49:11.810Z,63.10
2018-05-31T01:51:41.176Z,63.30
2018-05-31T01:54:09.430Z,63.50
2018-05-31T01:56:37.628Z,63.60
2018-05-31T01:59:05.814Z,63.70
2018-05-31T02:01:33.924Z,63.90
2018-05-31T02:04:02.027Z,63.90
2018-05-31T02:06:30.215Z,64.00
2018-05-31T02:08:58.333Z,64.20
2018-05-31T02:11:26.461Z,64.30
2018-05-31T02:13:54.562Z,64.40
2018-05-31T02:16:23.487Z,65.40
2018-05-31T02:18:53.077Z,64.70
2018-05-31T02:21:21.205Z,64.70
2018-05-31T02:23:49.365Z,64.90
2018-05-31T02:26:17.611Z,65.00
2018-05-31T02:28:46.505Z,65.20
2018-05-31T02:31:15.385Z,65.30
2018-05-31T02:33:43.513Z,65.30
2018-05-31T02:36:11.613Z,65.40
2018-05-31T02:38:39.772Z,65.50
2018-05-31T02:41:07.895Z,65.60
2018-05-31T02:43:36.782Z,65.70
2018-05-31T02:46:05.684Z,65.70
2018-05-31T02:48:34.549Z,65.90
2018-05-31T02:51:02.663Z,66.50
2018-05-31T02:53:30.774Z,66.00
2018-05-31T02:55:58.912Z,66.10
2018-05-31T02:58:27.039Z,66.10
2018-05-31T03:00:55.958Z,66.10
2018-05-31T03:03:24.110Z,66.30
2018-05-31T03:05:52.235Z,66.50
2018-05-31T03:08:20.370Z,66.50
2018-05-31T03:10:48.491Z,66.80
2018-05-31T03:13:20.818Z,67.00
2018-05-31T03:15:48.923Z,67.00
2018-05-31T03:18:17.114Z,67.10
2018-05-31T03:20:45.239Z,67.10
2018-05-31T03:23:13.354Z,67.30
2018-05-31T03:25:41.525Z,67.40
2018-05-31T03:28:09.653Z,67.40
2018-05-31T03:30:37.785Z,67.40
2018-05-31T03:33:07.193Z,67.50
2018-05-31T03:35:35.311Z,67.30
2018-05-31T03:38:03.925Z,67.40
2018-05-31T03:40:32.038Z,67.40
2018-05-31T03:43:00.163Z,67.50
2018-05-31T03:45:28.278Z,67.50
2018-05-31T03:47:56.413Z,67.30
2018-05-31T03:50:25.319Z,67.40
2018-05-31T03:52:53.444Z,67.40
2018-05-31T03:55:21.569Z,67.50
2018-05-31T03:57:49.699Z,67.60
2018-05-31T04:00:17.838Z,67.60
2018-05-31T04:02:45.947Z,67.70
2018-05-31T04:05:14.862Z,67.80
2018-05-31T04:07:42.982Z,67.90
2018-05-31T04:10:11.960Z,68.00
2018-05-31T04:12:40.102Z,68.90
2018-05-31T04:15:08.283Z,68.10
2018-05-31T04:17:36.458Z,68.20
2018-05-31T04:20:04.569Z,68.30
2018-05-31T04:22:32.695Z,68.30
2018-05-31T04:25:00.844Z,68.30
2018-05-31T04:27:28.970Z,68.50
2018-05-31T04:29:57.190Z,68.50
2018-05-31T04:32:25.312Z,68.50
2018-05-31T04:34:53.441Z,68.60
2018-05-31T04:37:21.545Z,68.60
2018-05-31T04:39:49.791Z,68.70
2018-05-31T04:42:18.006Z,68.70
2018-05-31T04:44:46.239Z,68.70
2018-05-31T04:47:14.419Z,68.80
2018-05-31T04:49:42.524Z,68.70
2018-05-31T04:52:11.276Z,68.80
2018-05-31T04:54:39.395Z,68.70
2018-05-31T04:57:07.534Z,68.80
2018-05-31T04:59:35.728Z,68.70
2018-05-31T05:02:03.891Z,68.80
2018-05-31T05:04:32.000Z,68.70
2018-05-31T05:07:00.877Z,68.90
2018-05-31T05:09:28.985Z,68.80
2018-05-31T05:11:57.109Z,68.80
2018-05-31T05:14:25.263Z,68.80
2018-05-31T05:16:53.455Z,68.70
2018-05-31T05:19:22.078Z,68.80
2018-05-31T05:21:51.021Z,68.70
2018-05-31T05:24:19.170Z,68.70
2018-05-31T05:26:47.479Z,68.60
2018-05-31T05:29:15.701Z,68.70
2018-05-31T05:31:43.871Z,68.60
2018-05-31T05:34:12.019Z,68.60
2018-05-31T05:36:40.138Z,68.70
2018-05-31T05:39:08.250Z,68.50
2018-05-31T05:41:36.380Z,68.50
2018-05-31T05:44:04.514Z,68.40
2018-05-31T05:46:32.639Z,68.40
2018-05-31T05:49:00.788Z,68.30
2018-05-31T05:51:28.881Z,68.20
2018-05-31T05:53:56.988Z,68.10
2018-05-31T05:56:25.213Z,67.90
2018-05-31T05:58:53.297Z,67.80
2018-05-31T06:01:21.403Z,67.80
2018-05-31T06:03:49.508Z,67.60
2018-05-31T06:06:17.668Z,67.70
2018-05-31T06:08:46.566Z,67.80
2018-05-31T06:11:15.501Z,67.50
2018-05-31T06:13:43.619Z,67.50
2018-05-31T06:16:11.727Z,67.40
2018-05-31T06:18:39.839Z,67.40
2018-05-31T06:21:08.867Z,67.40
2018-05-31T06:23:37.380Z,67.30
2018-05-31T06:26:05.514Z,67.10
2018-05-31T06:28:33.814Z,67.00
2018-05-31T06:31:01.950Z,66.90
2018-05-31T06:33:30.070Z,66.80
2018-05-31T06:35:58.325Z,66.60
2018-05-31T06:38:26.541Z,66.40
2018-05-31T06:40:54.767Z,66.20
2018-05-31T06:43:23.999Z,66.00
2018-05-31T06:45:52.889Z,65.90
2018-05-31T06:48:21.822Z,65.70
2018-05-31T06:50:50.173Z,66.40
2018-05-31T06:53:19.054Z,65.50
2018-05-31T06:55:47.218Z,65.20
2018-05-31T06:58:15.348Z,65.10
2018-05-31T07:13:38.498Z,65.00
2018-05-31T07:16:06.618Z,65.10
2018-05-31T07:18:34.710Z,65.60
2018-05-31T07:21:02.902Z,65.70
2018-05-31T07:23:31.175Z,65.60
2018-05-31T07:25:59.315Z,65.50
2018-05-31T07:28:27.434Z,65.20
2018-05-31T07:30:55.536Z,64.70
2018-05-31T07:33:24.409Z,64.10
2018-05-31T07:35:52.521Z,64.00
2018-05-31T07:38:20.689Z,63.70
2018-05-31T07:40:48.934Z,63.60
2018-05-31T07:43:17.133Z,63.40
2018-05-31T07:45:45.873Z,63.40
2018-05-31T07:48:15.341Z,63.40
2018-05-31T07:50:43.921Z,63.50
2018-05-31T07:53:12.165Z,63.40
2018-05-31T07:55:40.285Z,63.50
2018-05-31T07:58:08.423Z,63.50
2018-05-31T08:00:36.535Z,63.20
2018-05-31T08:03:04.641Z,63.10
2018-05-31T08:05:32.743Z,63.10
2018-05-31T08:08:00.860Z,63.00
2018-05-31T08:10:28.954Z,63.00
2018-05-31T08:12:57.634Z,62.80
2018-05-31T08:15:25.868Z,62.70
2018-05-31T08:17:54.518Z,62.50
2018-05-31T08:20:22.644Z,62.30
2018-05-31T08:22:51.085Z,62.10
2018-05-31T08:25:19.286Z,62.10
2018-05-31T08:27:47.408Z,61.90
2018-05-31T08:30:15.547Z,61.80
2018-05-31T08:32:43.653Z,61.60
2018-05-31T08:35:12.063Z,61.50
2018-05-31T08:37:40.203Z,61.30
2018-05-31T08:40:08.367Z,61.40
2018-05-31T08:42:36.471Z,61.30
2018-05-31T08:45:04.595Z,61.20
2018-05-31T08:47:32.707Z,61.10
2018-05-31T08:50:00.801Z,61.00
2018-05-31T08:52:28.921Z,61.00
2018-05-31T08:54:57.037Z,61.10
2018-05-31T08:57:25.158Z,61.20
2018-05-31T08:59:53.289Z,61.20
2018-05-31T09:02:21.407Z,61.20
2018-05-31T09:04:55.437Z,61.30
2018-05-31T09:07:23.566Z,61.10
2018-05-31T09:09:51.669Z,61.20
2018-05-31T09:12:19.846Z,61.20
2018-05-31T09:14:48.068Z,61.10
2018-05-31T09:17:16.950Z,60.60
2018-05-31T09:19:45.216Z,60.40
2018-05-31T09:22:14.416Z,60.30
2018-05-31T09:24:42.556Z,60.40
2018-05-31T09:27:11.028Z,60.20
2018-05-31T09:29:39.437Z,60.10
2018-05-31T09:32:10.760Z,60.00
2018-05-31T09:34:38.888Z,59.80
2018-05-31T09:37:07.008Z,59.40
2018-05-31T09:39:35.950Z,59.80
2018-05-31T09:42:04.046Z,59.20
2018-05-31T09:44:32.180Z,59.00
2018-05-31T09:47:00.324Z,58.80
2018-05-31T09:49:28.489Z,58.70
2018-05-31T09:51:56.708Z,58.50
2018-05-31T09:54:25.585Z,57.90
2018-05-31T09:56:53.706Z,57.80
2018-05-31T09:59:21.830Z,57.70
2018-05-31T10:01:49.951Z,57.40
2018-05-31T10:04:18.087Z,57.10
2018-05-31T10:06:47.103Z,56.90
2018-05-31T10:09:15.403Z,56.90
2018-05-31T10:11:43.651Z,56.70
2018-05-31T10:14:11.910Z,56.40
2018-05-31T10:16:40.121Z,56.10
2018-05-31T10:19:12.395Z,56.00
2018-05-31T10:21:40.543Z,55.60
2018-05-31T10:24:08.803Z,55.30
2018-05-31T10:26:36.943Z,54.90
2018-05-31T10:29:05.091Z,54.60
2018-05-31T10:31:33.237Z,54.30
2018-05-31T10:34:01.981Z,54.50
2018-05-31T10:36:30.139Z,53.60
2018-05-31T10:38:58.289Z,53.00
2018-05-31T10:41:26.455Z,52.40
2018-05-31T10:43:54.619Z,51.90
2018-05-31T10:46:22.792Z,51.50
2018-05-31T10:48:50.926Z,51.30
2018-05-31T10:51:20.024Z,51.50
2018-05-31T10:53:48.344Z,51.30
2018-05-31T10:56:16.518Z,50.30
2018-05-31T10:58:44.649Z,49.90
2018-05-31T11:01:12.877Z,49.40
2018-05-31T11:03:41.025Z,48.90
2018-05-31T11:06:09.167Z,48.40
2018-05-31T11:08:37.332Z,48.20
2018-05-31T11:11:05.419Z,47.70
2018-05-31T11:13:33.533Z,47.30
2018-05-31T11:16:01.647Z,46.80
2018-05-31T11:18:29.780Z,46.30
2018-05-31T11:20:58.895Z,45.80
2018-05-31T11:23:27.467Z,45.40
2018-05-31T11:25:57.979Z,45.10
2018-05-31T11:28:26.115Z,44.40
2018-05-31T11:30:54.331Z,43.70
2018-05-31T11:33:22.577Z,43.10
2018-05-31T11:35:50.691Z,42.60
2018-05-31T11:38:18.925Z,42.30
2018-05-31T11:40:47.055Z,42.10
2018-05-31T11:43:15.155Z,42.10
2018-05-31T11:45:43.288Z,42.10
2018-05-31T11:48:11.407Z,41.60
2018-05-31T11:50:41.705Z,40.80
2018-05-31T11:53:09.842Z,40.70
2018-05-31T11:55:37.947Z,39.20
2018-05-31T11:58:06.086Z,38.10
2018-05-31T12:00:34.359Z,37.60
2018-05-31T12:03:02.532Z,37.70
2018-05-31T12:05:30.764Z,37.90
2018-05-31T12:07:59.045Z,37.80
2018-05-31T12:10:27.687Z,37.70
2018-05-31T12:12:55.816Z,37.20
2018-05-31T12:15:24.704Z,36.10
2018-05-31T12:17:52.808Z,35.90
2018-05-31T12:20:20.900Z,35.80
2018-05-31T12:22:49.007Z,35.50
2018-05-31T12:25:17.124Z,34.70
2018-05-31T12:27:45.258Z,33.70
2018-05-31T12:30:13.436Z,32.40
2018-05-31T12:32:41.558Z,30.70
2018-05-31T12:35:09.674Z,29.40
2018-05-31T12:37:37.834Z,28.50
2018-05-31T12:40:06.023Z,28.30
2018-05-31T12:42:34.127Z,28.10
2018-05-31T12:45:02.247Z,27.50
2018-05-31T12:47:30.403Z,27.20
2018-05-31T12:49:58.519Z,27.30
2018-05-31T12:52:26.652Z,27.40
2018-05-31T12:54:54.875Z,27.40
2018-05-31T12:57:23.751Z,27.60
2018-05-31T12:59:51.879Z,27.50
2018-05-31T13:02:20.005Z,28.40
2018-05-31T13:04:48.123Z,27.50
2018-05-31T13:07:16.227Z,27.10
2018-05-31T13:09:44.348Z,27.10
2018-05-31T13:12:12.500Z,27.00
2018-05-31T13:14:41.421Z,27.20
2018-05-31T13:17:09.559Z,27.50
2018-05-31T13:19:37.671Z,28.00
2018-05-31T13:22:05.859Z,28.60
2018-05-31T13:24:33.988Z,28.90
2018-05-31T13:27:02.095Z,29.20
2018-05-31T13:29:30.229Z,29.40
2018-05-31T13:31:58.356Z,29.80
2018-05-31T13:34:26.511Z,30.00
2018-05-31T13:36:54.608Z,30.60
2018-05-31T13:39:22.733Z,31.30
2018-05-31T13:41:50.898Z,31.70
2018-05-31T13:44:19.074Z,32.00
2018-05-31T13:46:47.194Z,32.40
2018-05-31T13:49:15.286Z,32.40
2018-05-31T13:51:43.496Z,32.80
2018-05-31T13:54:11.609Z,33.20
2018-05-31T13:56:39.737Z,33.30
2018-05-31T13:59:08.696Z,33.00
2018-05-31T14:01:36.806Z,33.00
2018-05-31T14:04:04.911Z,32.60
2018-05-31T14:06:34.089Z,32.40
2018-05-31T14:09:02.242Z,32.40
2018-05-31T14:11:31.244Z,32.30
2018-05-31T14:13:59.415Z,32.20
2018-05-31T14:16:27.634Z,32.20
2018-05-31T14:18:55.795Z,32.40
2018-05-31T14:21:23.891Z,32.70
2018-05-31T14:23:52.004Z,32.20
2018-05-31T14:26:20.903Z,31.70
2018-05-31T14:28:48.997Z,31.70
2018-05-31T14:31:17.138Z,31.10
2018-05-31T14:33:45.247Z,30.80
2018-05-31T14:36:13.356Z,30.40
2018-05-31T14:38:41.497Z,29.70
2018-05-31T14:41:09.616Z,28.90
2018-05-31T14:43:37.721Z,28.10
2018-05-31T14:46:05.898Z,27.40
2018-05-31T14:48:34.147Z,26.60
2018-05-31T14:51:02.366Z,25.90
2018-05-31T14:53:30.908Z,25.30
2018-05-31T14:55:59.834Z,24.40
2018-05-31T14:58:28.060Z,24.30
2018-05-31T15:00:56.173Z,24.00
2018-05-31T15:03:24.336Z,23.60
2018-05-31T15:05:52.496Z,23.60
2018-05-31T15:08:21.094Z,23.50
2018-05-31T15:10:49.707Z,23.40
2018-05-31T15:13:17.800Z,23.20
2018-05-31T15:15:45.906Z,23.10
2018-05-31T15:18:14.143Z,23.40
2018-05-31T15:20:42.295Z,23.80
2018-05-31T15:23:10.470Z,24.30
2018-05-31T15:25:38.735Z,24.80
2018-05-31T15:28:06.831Z,25.40
2018-05-31T15:30:35.050Z,26.00
2018-05-31T15:33:03.951Z,27.20
2018-05-31T15:35:32.081Z,27.20
2018-05-31T15:38:00.547Z,28.00
2018-05-31T15:40:28.661Z,28.90
2018-05-31T15:42:56.829Z,29.60
2018-05-31T15:45:24.978Z,30.60
2018-05-31T15:47:53.104Z,32.40
2018-05-31T15:50:21.226Z,34.10
2018-05-31T15:52:49.482Z,36.10
2018-05-31T15:55:17.960Z,38.10
2018-05-31T15:57:46.238Z,40.00
2018-05-31T16:00:15.702Z,41.70
2018-05-31T16:02:43.942Z,43.50
2018-05-31T16:05:12.277Z,44.90
2018-05-31T16:07:40.783Z,46.10
2018-05-31T16:10:09.658Z,47.30
2018-05-31T16:12:38.682Z,48.00
2018-05-31T16:15:30.538Z,48.10
2018-05-31T16:18:00.461Z,48.30
2018-05-31T16:20:28.633Z,48.50
2018-05-31T16:22:57.942Z,49.60
2018-05-31T16:25:26.130Z,49.70
2018-05-31T16:27:54.406Z,50.30
2018-05-31T16:30:22.660Z,50.80
2018-05-31T16:32:51.344Z,51.10
2018-05-31T16:35:19.571Z,51.40
2018-05-31T16:37:47.749Z,51.60
2018-05-31T16:40:15.957Z,51.60
2018-05-31T16:42:44.094Z,51.80
2018-05-31T16:54:52.269Z,51.90
2018-05-31T16:57:20.429Z,50.30
2018-05-31T16:59:48.870Z,51.80
2018-05-31T17:02:17.148Z,53.10
2018-05-31T17:04:45.419Z,53.70
2018-05-31T17:07:13.601Z,54.40
2018-05-31T17:09:41.971Z,54.80
2018-05-31T17:12:10.167Z,54.80
2018-05-31T17:14:38.323Z,55.00
2018-05-31T17:17:06.571Z,55.10
2018-05-31T17:19:34.777Z,54.90
2018-05-31T17:22:03.661Z,54.40
2018-05-31T17:24:31.805Z,54.40
2018-05-31T17:27:00.063Z,54.30
2018-05-31T17:29:28.221Z,54.20
2018-05-31T17:31:56.395Z,54.10
2018-05-31T17:34:25.307Z,54.30
2018-05-31T17:36:53.540Z,54.30
2018-05-31T17:39:21.838Z,54.60
2018-05-31T17:41:50.563Z,54.70
2018-05-31T17:44:18.722Z,54.90
2018-05-31T17:46:46.880Z,54.90
2018-05-31T17:49:15.170Z,54.80
2018-05-31T17:51:43.377Z,55.20
2018-05-31T17:54:11.536Z,55.90
2018-05-31T17:56:39.714Z,56.80
2018-05-31T17:59:08.614Z,57.90
2018-05-31T18:01:37.550Z,58.10
2018-05-31T18:04:05.843Z,58.20
2018-05-31T18:06:34.082Z,58.40
2018-05-31T18:09:02.268Z,58.60
2018-05-31T18:11:30.464Z,58.60
2018-05-31T18:13:58.602Z,58.90
2018-05-31T18:16:26.810Z,59.40
2018-05-31T18:18:55.119Z,59.70
2018-05-31T18:21:23.333Z,59.80
2018-05-31T18:23:51.519Z,59.90
2018-05-31T18:26:19.773Z,60.00
2018-05-31T18:28:48.636Z,60.00
2018-05-31T18:31:17.410Z,59.80
2018-05-31T18:33:46.682Z,59.80
2018-05-31T18:36:15.305Z,59.70
2018-05-31T18:38:43.543Z,59.70
2018-05-31T18:41:11.705Z,59.60
2018-05-31T18:43:41.106Z,59.50
2018-05-31T18:46:09.365Z,59.60
2018-05-31T18:48:37.664Z,59.60
2018-05-31T18:51:05.907Z,59.40
2018-05-31T18:53:34.113Z,59.30
2018-05-31T18:56:06.684Z,59.40
2018-05-31T18:58:35.211Z,59.60
2018-05-31T19:01:03.682Z,59.60
2018-05-31T19:03:31.848Z,59.60
2018-05-31T19:06:00.277Z,59.70
2018-05-31T19:08:28.498Z,59.80
2018-05-31T19:10:56.923Z,59.80
2018-05-31T19:13:30.634Z,60.00
2018-05-31T19:15:58.960Z,60.00
2018-05-31T19:18:33.353Z,60.30
2018-05-31T19:21:02.411Z,60.60
2018-05-31T19:23:30.685Z,60.60
2018-05-31T19:25:59.671Z,60.20
2018-05-31T19:28:28.019Z,60.20
2018-05-31T19:31:01.555Z,60.30
2018-05-31T19:33:29.736Z,60.60
2018-05-31T19:36:04.247Z,60.80
2018-05-31T19:38:34.994Z,60.90
2018-05-31T19:44:12.024Z,61.30
2018-05-31T19:46:40.147Z,61.30
2018-05-31T19:54:49.016Z,61.70
2018-05-31T19:57:17.345Z,61.70
2018-05-31T19:59:52.435Z,61.70
2018-05-31T20:02:26.057Z,61.70
2018-05-31T20:04:54.772Z,62.40
2018-05-31T20:07:23.694Z,61.20
2018-05-31T20:09:51.963Z,61.20
2018-05-31T20:12:21.258Z,61.10
2018-05-31T20:14:50.146Z,60.90
2018-05-31T20:17:19.072Z,60.60
2018-05-31T20:19:47.353Z,60.60
2018-05-31T20:22:15.580Z,60.50
2018-05-31T20:24:44.538Z,60.30
2018-05-31T20:27:12.946Z,60.30
2018-05-31T20:29:41.837Z,60.20
2018-05-31T20:32:10.845Z,60.30
2018-05-31T20:34:41.076Z,60.40
2018-05-31T20:37:09.200Z,60.40
2018-05-31T20:39:37.598Z,60.50
2018-05-31T20:42:05.755Z,60.80
2018-05-31T20:44:34.596Z,61.00
2018-05-31T20:47:05.903Z,61.10
2018-05-31T20:49:34.049Z,61.20
2018-05-31T20:52:02.213Z,61.20
2018-05-31T20:54:32.641Z,61.50
2018-05-31T20:57:07.585Z,61.50
2018-05-31T20:59:37.979Z,61.60
2018-05-31T21:02:06.197Z,61.80
2018-05-31T21:04:34.319Z,61.90
2018-05-31T21:07:03.423Z,62.30
2018-05-31T21:09:31.731Z,62.30
2018-05-31T21:12:17.535Z,62.50
2018-05-31T21:14:46.815Z,62.80
2018-05-31T21:17:19.288Z,62.80
2018-05-31T21:19:48.744Z,63.10
2018-05-31T21:22:16.887Z,63.30
2018-05-31T21:24:45.343Z,63.50
2018-05-31T21:27:13.476Z,63.70
2018-05-31T21:29:43.069Z,63.90
2018-05-31T21:32:11.973Z,64.00
2018-05-31T21:34:40.193Z,64.10
2018-05-31T21:37:08.330Z,64.20
2018-05-31T21:39:36.472Z,64.30
2018-05-31T21:42:04.608Z,64.60
2018-05-31T21:44:32.754Z,64.50
2018-05-31T21:47:05.665Z,64.70
2018-05-31T21:49:36.613Z,64.60
2018-05-31T21:52:05.592Z,64.60
2018-05-31T21:54:34.548Z,64.60
2018-05-31T21:57:03.440Z,64.60
2018-05-31T22:02:51.104Z,65.00
2018-05-31T22:05:20.871Z,64.80
2018-05-31T22:07:49.850Z,64.80
2018-05-31T22:10:18.345Z,65.10
